Time;durP1;ratioP1;P1;durP2;ratioP2;P2;SDS_P1;SDS_P2;PMS_P1;PMS_P2;Temp;Humidity;BMP_temperature;BMP_pressure;BME280_temperature;BME280_humidity;BME280_pressure;Samples;Min_cycle;Max_cycle;Signal;HPM_P1;HPM_P2
2022/06/15 00:01:49;;;;;;;4.30;1.70;;;12.50;99.90;;;;;;4956239;28;20097;-90
2022/06/15 00:04:21;;;;;;;10.00;2.47;;;12.40;99.90;;;;;;4954886;29;20110;-90
2022/06/15 00:06:47;;;;;;;6.28;2.30;;;12.30;99.90;;;;;;4934194;29;20038;-90
2022/06/15 00:09:12;;;;;;;5.63;2.25;;;12.30;99.90;;;;;;4924340;28;20694;-90
2022/06/15 00:11:43;;;;;;;4.78;2.63;;;12.20;99.90;;;;;;4952660;28;20156;-90
2022/06/15 00:14:16;;;;;;;5.75;1.73;;;12.30;99.90;;;;;;4945333;28;20046;-89
2022/06/15 00:16:41;;;;;;;6.30;2.20;;;12.20;99.90;;;;;;4956217;28;20031;-89
2022/06/15 00:19:29;;;;;;;5.63;1.73;;;12.20;99.90;;;;;;4946450;28;20039;-89
2022/06/15 00:21:54;;;;;;;9.63;2.10;;;12.20;99.90;;;;;;4955759;29;20032;-90
2022/06/15 00:24:20;;;;;;;5.88;1.98;;;12.10;99.90;;;;;;4938249;29;20027;-90
2022/06/15 00:27:17;;;;;;;7.55;1.92;;;12.10;99.90;;;;;;4931347;29;20034;-90
2022/06/15 00:29:42;;;;;;;4.10;1.67;;;12.00;99.90;;;;;;4927723;29;20479;-89
2022/06/15 00:32:08;;;;;;;5.65;1.75;;;12.10;99.90;;;;;;4940878;28;20129;-90
2022/06/15 00:34:40;;;;;;;8.30;2.55;;;12.00;99.90;;;;;;4946293;28;20053;-89
2022/06/15 00:37:06;;;;;;;8.77;1.90;;;12.00;99.90;;;;;;4961597;28;20062;-89
2022/06/15 00:39:35;;;;;;;5.20;2.20;;;11.90;99.90;;;;;;4955281;29;20016;-89
2022/06/15 00:42:31;;;;;;;3.33;1.92;;;11.90;99.90;;;;;;4938496;29;20530;-89
2022/06/15 00:44:56;;;;;;;3.05;1.63;;;11.90;99.90;;;;;;4966038;28;20081;-90
2022/06/15 00:47:30;;;;;;;12.10;2.10;;;11.80;99.90;;;;;;4974075;28;20490;-89
2022/06/15 00:50:05;;;;;;;7.70;1.98;;;11.90;99.90;;;;;;4961411;28;20059;-89
2022/06/15 00:52:41;;;;;;;5.57;1.90;;;11.80;99.90;;;;;;4937466;29;20031;-89
2022/06/15 00:55:18;;;;;;;5.10;1.75;;;11.80;99.90;;;;;;4922031;29;20039;-89
2022/06/15 00:57:44;;;;;;;6.78;2.20;;;11.70;99.90;;;;;;4955282;29;20399;-89
2022/06/15 01:00:17;;;;;;;3.38;1.88;;;11.70;99.90;;;;;;4948145;29;20020;-89
2022/06/15 01:02:43;;;;;;;5.30;2.00;;;11.70;99.90;;;;;;4929890;29;20118;-89
2022/06/15 01:05:57;;;;;;;6.53;2.30;;;11.70;99.90;;;;;;4951493;28;20122;-89
2022/06/15 01:08:56;;;;;;;5.32;1.98;;;11.60;99.90;;;;;;4942668;29;20459;-89
2022/06/15 01:12:04;;;;;;;4.75;1.63;;;11.60;99.90;;;;;;4947758;29;20039;-88
2022/06/15 01:15:20;;;;;;;7.40;2.08;;;11.50;99.90;;;;;;4935907;29;20463;-89
2022/06/15 01:18:39;;;;;;;5.70;2.20;;;11.40;99.90;;;;;;4938331;29;20460;-88
2022/06/15 01:21:36;;;;;;;9.25;2.25;;;11.40;99.90;;;;;;4919889;29;20027;-89
2022/06/15 01:30:35;;;;;;;4.82;2.40;;;11.30;99.90;;;;;;4955022;29;20086;-88
2022/06/15 01:33:41;;;;;;;3.55;1.73;;;11.30;99.90;;;;;;4956281;28;20023;-89
2022/06/15 01:36:13;;;;;;;6.63;2.58;;;11.20;99.90;;;;;;4970126;28;20037;-90
2022/06/15 01:38:41;;;;;;;7.47;2.45;;;11.20;99.90;;;;;;4937511;29;20035;-89
2022/06/15 01:41:39;;;;;;;8.80;3.10;;;11.20;99.90;;;;;;4940525;29;20090;-90
2022/06/15 01:44:32;;;;;;;6.57;2.08;;;11.20;99.90;;;;;;4935983;29;20023;-89
2022/06/15 01:47:02;;;;;;;4.80;2.10;;;11.10;99.90;;;;;;4919550;29;20126;-89
2022/06/15 01:49:44;;;;;;;3.35;1.77;;;11.10;99.90;;;;;;4969456;28;20027;-90
2022/06/15 01:52:13;;;;;;;6.07;2.28;;;11.10;99.90;;;;;;4953670;29;20479;-89
2022/06/15 01:54:46;;;;;;;5.13;2.10;;;11.10;99.90;;;;;;4960556;28;20034;-89
2022/06/15 01:57:15;;;;;;;9.05;2.22;;;11.20;99.90;;;;;;4973933;28;20538;-89
2022/06/15 02:03:17;;;;;;;4.47;2.20;;;11.10;99.90;;;;;;4968553;28;20030;-89
2022/06/15 02:05:53;;;;;;;4.43;2.13;;;11.10;99.90;;;;;;4924435;29;20074;-89
2022/06/15 02:09:01;;;;;;;7.38;2.22;;;11.10;99.90;;;;;;4958006;29;20055;-89
2022/06/15 02:11:31;;;;;;;5.30;2.28;;;11.10;99.90;;;;;;4972744;28;20120;-89
2022/06/15 02:17:28;;;;;;;9.27;2.60;;;11.10;99.90;;;;;;4960351;28;20037;-89
2022/06/15 02:20:00;;;;;;;3.85;2.17;;;11.00;99.90;;;;;;4933160;29;20028;-89
2022/06/15 02:22:30;;;;;;;9.57;2.42;;;11.00;99.90;;;;;;4938909;29;20046;-89
2022/06/15 02:25:16;;;;;;;5.45;1.98;;;10.90;99.90;;;;;;4961704;28;20037;-88
2022/06/15 02:27:43;;;;;;;6.55;1.88;;;10.90;99.90;;;;;;4921951;29;20035;-88
2022/06/15 02:30:47;;;;;;;4.32;2.55;;;10.90;99.90;;;;;;4968820;28;20114;-87
2022/06/15 02:33:28;;;;;;;3.10;2.00;;;10.80;99.90;;;;;;4920196;29;20047;-88
2022/06/15 02:35:56;;;;;;;8.20;1.92;;;10.80;99.90;;;;;;4942292;29;20458;-88
2022/06/15 02:38:23;;;;;;;4.07;1.77;;;10.80;99.90;;;;;;4957353;29;20035;-88
2022/06/15 02:40:48;;;;;;;8.65;2.35;;;10.70;99.90;;;;;;4938766;29;20472;-88
2022/06/15 02:43:17;;;;;;;6.47;2.45;;;10.70;99.90;;;;;;4949549;29;20082;-88
2022/06/15 02:45:44;;;;;;;4.90;2.00;;;10.60;99.90;;;;;;4957188;29;20100;-87
2022/06/15 02:48:35;;;;;;;5.53;2.00;;;10.70;99.90;;;;;;4957478;29;20031;-87
2022/06/15 02:51:06;;;;;;;7.82;2.00;;;10.60;99.90;;;;;;4957583;29;20046;-88
2022/06/15 02:54:25;;;;;;;6.18;2.20;;;10.70;99.90;;;;;;4952330;29;20569;-87
2022/06/15 02:56:51;;;;;;;8.43;2.78;;;10.70;99.90;;;;;;4933331;29;20475;-87
2022/06/15 02:59:17;;;;;;;5.28;2.00;;;10.70;99.90;;;;;;4937599;29;20031;-87
2022/06/15 03:02:07;;;;;;;7.20;2.30;;;10.60;99.90;;;;;;4947534;28;20022;-87
2022/06/15 03:04:32;;;;;;;11.18;2.10;;;10.70;99.90;;;;;;4952333;28;20066;-88
2022/06/15 03:07:10;;;;;;;7.40;2.53;;;10.60;99.90;;;;;;4974054;28;20031;-87
2022/06/15 03:09:36;;;;;;;5.80;1.98;;;10.60;99.90;;;;;;4973252;28;20063;-87
2022/06/15 03:12:01;;;;;;;12.10;2.33;;;10.50;99.90;;;;;;4974214;28;20050;-87
2022/06/15 03:14:29;;;;;;;9.38;2.40;;;10.60;99.90;;;;;;4962627;28;20514;-88
2022/06/15 03:16:54;;;;;;;5.07;2.17;;;10.50;99.90;;;;;;4975176;28;20442;-87
2022/06/15 03:19:20;;;;;;;5.95;2.47;;;10.50;99.90;;;;;;4939550;29;20114;-87
2022/06/15 03:21:45;;;;;;;5.15;1.80;;;10.50;99.90;;;;;;4940103;29;20126;-88
2022/06/15 03:24:11;;;;;;;4.68;1.92;;;10.50;99.90;;;;;;4931138;28;20030;-88
2022/06/15 03:26:37;;;;;;;14.20;2.45;;;10.50;99.90;;;;;;4975216;28;20038;-88
2022/06/15 03:29:19;;;;;;;8.85;2.53;;;10.40;99.90;;;;;;4959437;28;20030;-88
2022/06/15 03:31:47;;;;;;;12.35;2.53;;;10.50;99.90;;;;;;4958224;28;20656;-88
2022/06/15 03:34:14;;;;;;;6.00;2.20;;;10.40;99.90;;;;;;4954090;28;20019;-88
2022/06/15 03:36:39;;;;;;;5.47;1.70;;;10.50;99.90;;;;;;4967816;28;20102;-88
2022/06/15 03:39:27;;;;;;;5.35;2.47;;;10.50;99.90;;;;;;4956108;29;20106;-88
2022/06/15 03:41:53;;;;;;;5.93;2.10;;;10.50;99.90;;;;;;4939425;28;20038;-88
2022/06/15 03:44:18;;;;;;;4.78;2.03;;;10.50;99.90;;;;;;4957948;28;20035;-88
2022/06/15 03:46:46;;;;;;;6.50;2.15;;;10.50;99.90;;;;;;4968430;28;20027;-88
2022/06/15 03:49:12;;;;;;;5.03;2.10;;;10.50;99.90;;;;;;4951706;29;20043;-88
2022/06/15 03:51:38;;;;;;;9.40;2.05;;;10.50;99.90;;;;;;4940644;29;20484;-88
2022/06/15 03:54:19;;;;;;;7.05;2.30;;;10.60;99.90;;;;;;4955038;28;20031;-88
2022/06/15 03:56:47;;;;;;;10.43;2.63;;;10.60;99.90;;;;;;4938579;29;20070;-88
2022/06/15 03:59:15;;;;;;;6.03;2.25;;;10.60;99.90;;;;;;4938312;29;20054;-89
2022/06/15 04:01:40;;;;;;;5.45;2.22;;;10.60;99.90;;;;;;4942136;29;20162;-89
2022/06/15 04:04:06;;;;;;;8.13;2.53;;;10.60;99.90;;;;;;4956004;28;20498;-87
2022/06/15 04:06:32;;;;;;;4.05;2.47;;;10.60;99.90;;;;;;4975472;28;20037;-87
2022/06/15 04:09:21;;;;;;;6.88;2.10;;;10.70;99.90;;;;;;4956904;28;20390;-87
2022/06/15 04:14:36;;;;;;;7.20;2.20;;;10.90;99.90;;;;;;4948319;29;20038;-87
2022/06/15 04:17:02;;;;;;;3.53;2.22;;;10.90;99.90;;;;;;4961547;28;20058;-87
2022/06/15 04:19:41;;;;;;;6.10;2.58;;;11.00;99.90;;;;;;4958361;28;20031;-86
2022/06/15 04:22:06;;;;;;;3.40;2.25;;;11.10;99.90;;;;;;4954555;29;20023;-87
2022/06/15 04:24:39;;;;;;;5.90;2.83;;;11.20;99.90;;;;;;4955672;28;20027;-86
2022/06/15 04:27:05;;;;;;;8.45;2.47;;;11.20;99.90;;;;;;4944420;29;20031;-87
2022/06/15 04:29:53;;;;;;;3.50;2.00;;;11.30;99.90;;;;;;4937162;29;20534;-87
2022/06/15 04:32:19;;;;;;;3.78;1.75;;;11.30;99.90;;;;;;4954522;29;20045;-87
2022/06/15 04:34:44;;;;;;;14.77;2.60;;;11.40;99.90;;;;;;4952068;28;20106;-87
2022/06/15 04:37:22;;;;;;;8.25;2.53;;;11.50;99.90;;;;;;4955325;29;20086;-87
2022/06/15 04:39:48;;;;;;;5.28;2.67;;;11.60;99.90;;;;;;4938008;29;20015;-87
2022/06/15 04:42:14;;;;;;;7.32;2.20;;;11.70;99.90;;;;;;4955673;29;20038;-87
2022/06/15 04:45:07;;;;;;;4.03;1.80;;;11.80;99.90;;;;;;4949873;29;20034;-87
2022/06/15 04:47:32;;;;;;;6.63;2.20;;;11.90;99.90;;;;;;4953610;29;20035;-87
2022/06/15 04:50:06;;;;;;;3.38;1.85;;;12.00;99.90;;;;;;4955571;29;20420;-87
2022/06/15 04:52:32;;;;;;;7.00;2.40;;;12.10;99.90;;;;;;4952827;28;20037;-87
2022/06/15 04:55:19;;;;;;;5.85;2.28;;;12.10;99.90;;;;;;4963968;28;20023;-87
2022/06/15 04:57:45;;;;;;;10.48;2.72;;;12.20;99.90;;;;;;4937889;29;20126;-87
2022/06/15 05:00:17;;;;;;;8.90;3.38;;;12.30;99.90;;;;;;4958870;28;20023;-87
2022/06/15 05:03:14;;;;;;;5.45;2.25;;;12.40;99.90;;;;;;4938120;29;20059;-88
2022/06/15 05:05:40;;;;;;;6.40;1.90;;;12.50;99.90;;;;;;4954794;29;20052;-88
2022/06/15 05:08:06;;;;;;;5.70;2.30;;;12.50;99.90;;;;;;4945795;29;20114;-88
2022/06/15 05:10:53;;;;;;;7.75;2.05;;;12.60;99.90;;;;;;4949075;29;20034;-88
2022/06/15 05:13:19;;;;;;;11.30;2.50;;;12.70;99.90;;;;;;4960446;28;20030;-87
2022/06/15 05:15:55;;;;;;;4.18;1.98;;;12.70;99.90;;;;;;4919201;29;20032;-87
2022/06/15 05:18:21;;;;;;;9.68;2.97;;;12.80;99.90;;;;;;4935987;29;20035;-87
2022/06/15 05:20:47;;;;;;;9.32;2.47;;;12.90;99.90;;;;;;4936067;29;20020;-88
2022/06/15 05:23:14;;;;;;;10.27;2.72;;;13.00;99.90;;;;;;4918527;29;20475;-88
2022/06/15 05:25:41;;;;;;;13.95;3.10;;;13.10;99.90;;;;;;4953526;28;20034;-88
2022/06/15 05:28:08;;;;;;;8.82;2.45;;;13.10;99.90;;;;;;4958400;28;20046;-88
2022/06/15 05:31:01;;;;;;;7.25;2.25;;;13.20;99.90;;;;;;4958670;28;20030;-88
2022/06/15 05:33:27;;;;;;;16.50;4.22;;;13.30;99.90;;;;;;4950753;29;20122;-89
2022/06/15 05:36:01;;;;;;;8.88;2.38;;;13.40;99.90;;;;;;4936151;29;20075;-89
2022/06/15 05:38:26;;;;;;;7.60;2.20;;;13.40;99.90;;;;;;4936273;29;20095;-89
2022/06/15 05:40:52;;;;;;;5.53;2.05;;;13.50;99.90;;;;;;4960977;28;20491;-88
2022/06/15 05:43:18;;;;;;;8.23;2.63;;;13.50;99.90;;;;;;4958075;28;20035;-86
2022/06/15 05:45:44;;;;;;;9.63;2.30;;;13.60;99.90;;;;;;4973981;28;20092;-86
2022/06/15 05:48:19;;;;;;;10.40;2.85;;;13.70;99.90;;;;;;4945243;28;20032;-88
2022/06/15 05:50:45;;;;;;;;;;;13.70;99.90;;;;;;4954959;28;20032;-87
2022/06/15 05:53:10;;;;;;;15.25;3.33;;;13.80;99.90;;;;;;4930315;29;19929;-87
2022/06/15 05:55:36;;;;;;;10.13;3.00;;;13.80;99.90;;;;;;4960349;28;20514;-87
2022/06/15 05:58:03;;;;;;;9.32;2.72;;;13.80;99.90;;;;;;4936795;29;20023;-87
2022/06/15 06:00:29;;;;;;;5.55;2.28;;;14.00;99.90;;;;;;4953601;28;20027;-87
2022/06/15 06:02:55;;;;;;;7.95;2.22;;;14.00;99.90;;;;;;4937026;29;20031;-89
2022/06/15 06:05:21;;;;;;;4.20;1.92;;;14.00;99.90;;;;;;4935181;29;20046;-88
2022/06/15 06:07:54;;;;;;;10.98;2.70;;;14.10;99.90;;;;;;4941010;28;20027;-88
2022/06/15 06:10:20;;;;;;;10.57;2.58;;;14.10;99.90;;;;;;4942781;28;20023;-87
2022/06/15 06:12:45;;;;;;;6.22;2.20;;;14.20;99.90;;;;;;4949482;29;20102;-86
2022/06/15 06:15:19;;;;;;;7.28;2.30;;;14.30;99.90;;;;;;4937271;29;20448;-88
2022/06/15 06:17:45;;;;;;;10.60;2.60;;;14.30;99.90;;;;;;4935369;29;20082;-88
2022/06/15 06:20:11;;;;;;;9.73;2.53;;;14.30;99.90;;;;;;4951505;29;20024;-87
2022/06/15 06:22:41;;;;;;;7.72;2.80;;;14.40;99.90;;;;;;4926030;29;20031;-87
2022/06/15 06:25:07;;;;;;;9.50;2.63;;;14.40;99.90;;;;;;4954989;28;20051;-88
2022/06/15 06:27:34;;;;;;;9.20;2.20;;;14.50;99.90;;;;;;4936217;29;20394;-87
2022/06/15 06:30:16;;;;;;;11.60;2.63;;;14.60;99.90;;;;;;4959668;28;20054;-89
2022/06/15 06:32:42;;;;;;;8.43;2.80;;;14.70;99.90;;;;;;4944483;29;20079;-89
2022/06/15 06:35:08;;;;;;;13.73;2.50;;;14.70;99.90;;;;;;4951576;28;20039;-88
2022/06/15 06:37:39;;;;;;;6.78;2.13;;;14.70;99.90;;;;;;4968891;28;20094;-88
2022/06/15 06:40:05;;;;;;;12.02;2.90;;;14.80;99.90;;;;;;4953440;28;20079;-87
2022/06/15 06:42:31;;;;;;;7.40;2.03;;;14.80;99.90;;;;;;4947327;29;20479;-85
2022/06/15 06:44:56;;;;;;;15.10;3.15;;;14.80;99.90;;;;;;4962359;28;20078;-87
2022/06/15 06:47:22;;;;;;;14.18;2.90;;;15.00;99.90;;;;;;4966282;28;20512;-87
2022/06/15 06:49:47;;;;;;;14.15;2.97;;;15.00;99.90;;;;;;4947162;28;20065;-87
2022/06/15 06:52:32;;;;;;;16.08;2.70;;;15.10;99.90;;;;;;4951780;28;20041;-87
2022/06/15 06:54:57;;;;;;;10.73;2.67;;;15.20;99.90;;;;;;4957096;29;20136;-87
2022/06/15 06:57:23;;;;;;;10.20;3.03;;;15.30;99.90;;;;;;4957493;29;20027;-87
2022/06/15 06:59:50;;;;;;;10.50;2.35;;;15.40;99.90;;;;;;4955693;28;20027;-86
2022/06/15 07:02:15;;;;;;;9.68;2.88;;;15.50;99.90;;;;;;4951409;28;20083;-87
2022/06/15 07:04:41;;;;;;;9.27;3.10;;;15.60;99.90;;;;;;4956656;29;20399;-87
2022/06/15 07:07:08;;;;;;;14.88;3.47;;;15.60;99.90;;;;;;4960942;28;20035;-86
2022/06/15 07:09:34;;;;;;;11.73;3.40;;;15.70;99.90;;;;;;4946241;28;20027;-85
2022/06/15 07:12:06;;;;;;;11.40;3.85;;;15.70;99.90;;;;;;4952378;29;20081;-86
2022/06/15 07:14:32;;;;;;;5.70;2.55;;;15.80;99.90;;;;;;4932880;29;20484;-86
2022/06/15 07:16:57;;;;;;;12.60;3.03;;;15.90;99.90;;;;;;4934455;29;20081;-84
2022/06/15 07:19:23;;;;;;;14.20;3.58;;;16.00;99.90;;;;;;4947155;29;20090;-86
2022/06/15 07:21:48;;;;;;;13.88;3.13;;;16.10;99.90;;;;;;4948898;28;20074;-86
2022/06/15 07:24:29;;;;;;;9.60;2.72;;;16.20;99.90;;;;;;4951677;29;20023;-87
2022/06/15 07:26:57;;;;;;;18.75;3.22;;;16.30;99.90;;;;;;4972417;28;20066;-86
2022/06/15 07:29:23;;;;;;;14.57;3.95;;;16.40;99.90;;;;;;4936870;29;20046;-87
2022/06/15 07:31:56;;;;;;;9.40;2.80;;;16.60;99.90;;;;;;4954849;28;20028;-84
2022/06/15 07:34:29;;;;;;;5.85;2.25;;;16.70;99.90;;;;;;4939145;29;20035;-86
2022/06/15 07:36:54;;;;;;;13.70;2.83;;;16.70;99.90;;;;;;4940293;29;20043;-86
2022/06/15 07:39:22;;;;;;;8.48;2.05;;;16.80;99.90;;;;;;4938664;29;20035;-85
2022/06/15 07:42:08;;;;;;;13.80;2.80;;;17.00;99.90;;;;;;4952784;29;20396;-85
2022/06/15 07:44:35;;;;;;;7.63;2.35;;;17.00;99.90;;;;;;4937484;28;20027;-86
2022/06/15 07:50:06;;;;;;;16.20;2.30;;;17.30;99.90;;;;;;4972096;28;20172;-87
2022/06/15 07:52:37;;;;;;;6.35;2.17;;;17.40;99.90;;;;;;4952658;28;20031;-86
2022/06/15 07:55:06;;;;;;;8.77;2.30;;;17.50;99.90;;;;;;4938144;29;20081;-88
2022/06/15 07:57:32;;;;;;;13.10;2.30;;;17.60;99.90;;;;;;4945600;28;20030;-88
2022/06/15 07:59:57;;;;;;;12.68;2.47;;;17.60;99.90;;;;;;4937464;29;20020;-87
2022/06/15 08:02:37;;;;;;;13.13;2.60;;;17.70;99.90;;;;;;4970928;28;20114;-88
2022/06/15 08:05:11;;;;;;;19.10;2.25;;;17.80;99.90;;;;;;4937725;29;20394;-87
2022/06/15 08:07:37;;;;;;;19.58;3.00;;;17.90;99.90;;;;;;4956269;28;20095;-86
2022/06/15 08:10:04;;;;;;;16.88;4.22;;;17.90;99.90;;;;;;4961815;28;20476;-85
2022/06/15 08:12:32;;;;;;;9.68;2.30;;;18.00;99.90;;;;;;4949110;29;20090;-87
2022/06/15 08:15:01;;;;;;;12.82;1.88;;;18.10;99.90;;;;;;4955415;29;20098;-87
2022/06/15 08:17:34;;;;;;;9.52;2.03;;;18.20;99.90;;;;;;4938779;29;20036;-86
2022/06/15 08:20:10;;;;;;;10.32;2.17;;;18.30;99.90;;;;;;4955309;29;20023;-89
2022/06/15 08:22:39;;;;;;;8.98;2.63;;;18.40;99.90;;;;;;4957546;28;20038;-87
2022/06/15 08:25:08;;;;;;;6.57;1.83;;;18.40;99.90;;;;;;4938111;29;20027;-87
2022/06/15 08:27:36;;;;;;;5.88;1.73;;;18.50;99.90;;;;;;4954578;29;20027;-88
2022/06/15 08:30:06;;;;;;;16.77;2.63;;;18.70;99.90;;;;;;4956079;28;20030;-87
2022/06/15 08:32:45;;;;;;;5.07;1.58;;;18.70;99.90;;;;;;4925627;29;20483;-87
2022/06/15 08:35:11;;;;;;;9.80;1.92;;;18.90;99.90;;;;;;4946209;28;20034;-86
2022/06/15 08:37:46;;;;;;;13.27;2.00;;;19.00;99.90;;;;;;4960636;28;20360;-87
2022/06/15 08:40:13;;;;;;;11.60;2.85;;;19.00;99.90;;;;;;4945259;29;20027;-87
2022/06/15 08:43:17;;;;;;;9.82;2.08;;;19.10;99.90;;;;;;4949597;29;20019;-87
2022/06/15 08:45:48;;;;;;;12.60;1.95;;;19.20;99.90;;;;;;4951947;29;20468;-87
2022/06/15 08:48:47;;;;;;;11.90;2.42;;;19.30;99.90;;;;;;4936575;29;20079;-86
2022/06/15 08:51:27;;;;;;;8.20;1.77;;;19.40;99.90;;;;;;4916682;28;20035;-88
2022/06/15 08:54:26;;;;;;;10.27;2.08;;;19.60;99.90;;;;;;4956479;28;20027;-88
2022/06/15 08:57:33;;;;;;;8.68;1.60;;;19.70;99.90;;;;;;4968596;28;20023;-86
2022/06/15 09:00:09;;;;;;;10.93;2.38;;;19.80;99.90;;;;;;4877349;29;20033;-87
2022/06/15 09:03:06;;;;;;;13.73;2.03;;;20.00;99.90;;;;;;4946136;29;20046;-88
2022/06/15 09:06:12;;;;;;;11.05;2.10;;;20.10;99.90;;;;;;4954679;28;20436;-88
2022/06/15 09:08:55;;;;;;;13.85;2.10;;;20.20;99.90;;;;;;4944579;29;20114;-87
2022/06/15 09:14:53;;;;;;;7.15;1.90;;;20.30;99.90;;;;;;4960967;28;20085;-89
2022/06/15 09:17:23;;;;;;;8.32;1.90;;;20.30;99.90;;;;;;4937757;29;20035;-88
2022/06/15 09:23:12;;;;;;;10.00;2.28;;;20.60;99.90;;;;;;4953587;29;20102;-86
2022/06/15 09:28:52;;;;;;;2.90;1.52;;;20.80;99.90;;;;;;4840596;29;20147;-88
2022/06/15 09:31:43;;;;;;;5.07;1.40;;;21.00;99.90;;;;;;4952986;29;20083;-88
2022/06/15 09:34:14;;;;;;;9.55;1.90;;;21.00;99.90;;;;;;4954797;29;20098;-89
2022/06/15 09:36:46;;;;;;;8.10;1.70;;;21.00;99.90;;;;;;4951844;28;20030;-88
2022/06/15 09:39:22;;;;;;;5.10;1.45;;;21.10;99.90;;;;;;4961602;28;20027;-89
2022/06/15 09:41:50;;;;;;;9.68;1.80;;;21.20;99.90;;;;;;4961243;28;20031;-88
2022/06/15 09:44:15;;;;;;;9.82;2.08;;;21.20;99.90;;;;;;4954605;28;20449;-89
2022/06/15 09:47:25;;;;;;;6.85;1.52;;;21.30;99.90;;;;;;4955878;28;20031;-87
2022/06/15 09:50:20;;;;;;;10.10;1.45;;;21.60;99.90;;;;;;4952307;28;20027;-88
2022/06/15 09:53:12;;;;;;;5.43;1.48;;;21.70;99.80;;;;;;4918047;29;20035;-87
2022/06/15 09:55:45;;;;;;;6.28;1.80;;;21.80;98.30;;;;;;4946706;29;20030;-87
2022/06/15 09:58:17;;;;;;;6.65;1.63;;;21.90;97.00;;;;;;4954887;28;20484;-89
2022/06/15 10:01:06;;;;;;;5.65;1.40;;;21.90;98.10;;;;;;4935735;29;20106;-88
2022/06/15 10:03:36;;;;;;;9.40;1.33;;;22.00;98.40;;;;;;4944762;28;20051;-88
2022/06/15 10:06:16;;;;;;;5.65;1.60;;;22.10;96.50;;;;;;4967455;28;20123;-87
2022/06/15 10:08:42;;;;;;;5.60;1.70;;;22.20;95.90;;;;;;4946141;29;20027;-87
2022/06/15 10:11:42;;;;;;;5.20;1.60;;;22.30;93.80;;;;;;4951220;28;20531;-87
2022/06/15 10:14:28;;;;;;;8.80;1.40;;;22.40;90.50;;;;;;4932961;28;20034;-87
2022/06/15 10:16:55;;;;;;;;;;;22.40;89.10;;;;;;4935152;29;20039;-85
2022/06/15 10:19:21;;;;;;;10.60;2.00;;;22.50;87.60;;;;;;4948530;28;19917;-87
2022/06/15 10:22:34;;;;;;;7.97;1.33;;;22.50;88.40;;;;;;4956515;28;20034;-86
2022/06/15 10:25:03;;;;;;;8.13;2.20;;;22.50;87.20;;;;;;4948973;29;20039;-86
2022/06/15 10:27:38;;;;;;;5.70;1.90;;;22.50;84.60;;;;;;4949280;28;20034;-86
2022/06/15 10:30:16;;;;;;;4.57;1.48;;;22.50;83.50;;;;;;4957132;28;20031;-87
2022/06/15 10:33:01;;;;;;;5.75;1.55;;;22.60;85.70;;;;;;4957329;28;20035;-86
2022/06/15 10:35:30;;;;;;;3.92;1.50;;;22.60;80.40;;;;;;4956537;29;20033;-87
2022/06/15 10:38:14;;;;;;;7.03;1.83;;;22.60;79.30;;;;;;4957026;29;20041;-87
2022/06/15 10:43:49;;;;;;;6.35;1.83;;;22.60;80.20;;;;;;4950699;29;20064;-86
2022/06/15 10:46:16;;;;;;;5.95;1.88;;;22.70;79.40;;;;;;4954106;29;20475;-85
2022/06/15 10:48:54;;;;;;;11.73;1.85;;;22.80;78.00;;;;;;4956981;28;20102;-86
2022/06/15 10:51:32;;;;;;;11.25;2.03;;;22.90;71.30;;;;;;4948941;29;20035;-87
2022/06/15 10:54:19;;;;;;;6.68;1.65;;;22.90;71.40;;;;;;4950171;28;20502;-86
2022/06/15 11:03:21;;;;;;;5.53;1.75;;;23.10;72.50;;;;;;4960807;28;20034;-87
2022/06/15 11:05:50;;;;;;;6.10;1.90;;;23.20;70.30;;;;;;4948320;29;20048;-87
2022/06/15 11:08:29;;;;;;;4.15;1.50;;;23.20;66.30;;;;;;4950772;29;20035;-88
2022/06/15 11:11:23;;;;;;;9.68;2.08;;;23.20;67.00;;;;;;4935863;29;20039;-88
2022/06/15 11:14:06;;;;;;;14.93;3.40;;;23.20;66.90;;;;;;4937614;29;20365;-88
2022/06/15 11:19:26;;;;;;;10.68;3.30;;;23.30;65.70;;;;;;4946014;29;20032;-87
2022/06/15 11:22:05;;;;;;;7.43;1.92;;;23.40;63.80;;;;;;4956965;29;20062;-87
2022/06/15 11:25:06;;;;;;;4.93;1.20;;;23.40;65.00;;;;;;4956563;29;20023;-86
2022/06/15 11:27:36;;;;;;;16.90;1.70;;;23.50;62.40;;;;;;4939495;29;20027;-87
2022/06/15 11:30:32;;;;;;;9.57;1.80;;;23.50;60.60;;;;;;4939948;29;20028;-85
2022/06/15 11:33:43;;;;;;;8.43;1.50;;;23.50;61.70;;;;;;4956834;29;20023;-87
2022/06/15 11:36:36;;;;;;;4.25;1.45;;;23.50;59.50;;;;;;4956083;29;20523;-87
2022/06/15 11:39:21;;;;;;;6.30;1.77;;;23.50;60.00;;;;;;4956787;28;20032;-88
2022/06/15 11:41:53;;;;;;;8.10;1.63;;;23.50;63.00;;;;;;4939536;29;20062;-87
2022/06/15 11:44:39;;;;;;;7.47;1.80;;;23.60;59.40;;;;;;4956344;29;20391;-86
2022/06/15 11:47:07;;;;;;;;;;;23.70;58.80;;;;;;4940238;29;20027;-86
2022/06/15 11:50:20;;;;;;;8.90;2.38;;;23.70;57.80;;;;;;4956646;29;19910;-86
2022/06/15 11:52:56;;;;;;;14.45;1.70;;;23.70;57.70;;;;;;4956220;29;20031;-86
2022/06/15 11:55:25;;;;;;;7.80;1.73;;;23.80;58.90;;;;;;4956375;29;20079;-89
2022/06/15 11:57:53;;;;;;;7.75;1.85;;;24.00;59.60;;;;;;4939118;29;20121;-87
2022/06/15 12:00:34;;;;;;;7.78;1.48;;;24.00;60.00;;;;;;4956469;29;20062;-86
2022/06/15 12:03:17;;;;;;;10.02;1.67;;;24.10;58.00;;;;;;4939187;29;20027;-88
2022/06/15 12:06:21;;;;;;;5.47;1.35;;;24.20;55.80;;;;;;4955365;28;20058;-86
2022/06/15 12:08:56;;;;;;;5.25;1.55;;;24.20;54.80;;;;;;4872530;28;20496;-86
2022/06/15 12:14:53;;;;;;;2.03;1.02;;;24.30;53.50;;;;;;4959662;28;20033;-87
2022/06/15 12:17:36;;;;;;;6.93;1.92;;;24.30;53.50;;;;;;4954595;28;20027;-86
2022/06/15 12:20:33;;;;;;;7.32;1.90;;;24.30;54.20;;;;;;4956634;28;20427;-87
2022/06/15 12:23:08;;;;;;;7.90;1.52;;;24.30;54.00;;;;;;4930819;29;20024;-85
2022/06/15 12:26:00;;;;;;;4.65;1.63;;;24.30;51.70;;;;;;4964039;28;20023;-87
2022/06/15 12:28:32;;;;;;;4.40;1.45;;;24.40;52.80;;;;;;4944880;28;20098;-86
2022/06/15 12:31:25;;;;;;;8.98;1.52;;;24.40;52.00;;;;;;4954673;28;20097;-87
2022/06/15 12:34:10;;;;;;;6.05;1.40;;;24.40;51.40;;;;;;4951657;28;20023;-86
2022/06/15 12:36:48;;;;;;;8.73;2.17;;;24.40;52.00;;;;;;4950630;28;20122;-86
2022/06/15 12:39:55;;;;;;;2.72;1.42;;;24.40;51.30;;;;;;4949047;29;20287;-87
2022/06/15 12:42:22;;;;;;;5.70;1.70;;;24.30;51.50;;;;;;4953704;28;20120;-87
2022/06/15 12:45:07;;;;;;;7.28;1.75;;;24.40;51.70;;;;;;4951111;29;20077;-86
2022/06/15 12:47:34;;;;;;;5.03;1.70;;;24.30;50.50;;;;;;4939569;29;20028;-87
2022/06/15 12:50:24;;;;;;;4.18;1.23;;;24.30;51.10;;;;;;4948420;29;20035;-88
2022/06/15 12:53:20;;;;;;;6.53;1.65;;;24.40;53.30;;;;;;4946502;29;20038;-86
2022/06/15 12:59:26;;;;;;;5.75;1.33;;;24.50;51.30;;;;;;4951205;28;20035;-87
2022/06/15 13:02:24;;;;;;;3.15;1.30;;;24.50;50.90;;;;;;4934958;28;20035;-90
2022/06/15 13:05:31;;;;;;;4.72;1.35;;;24.50;49.70;;;;;;4954656;29;20043;-91
2022/06/15 13:08:20;;;;;;;7.50;1.55;;;24.50;49.30;;;;;;4965251;28;20042;-93
2022/06/15 13:10:55;;;;;;;4.72;1.42;;;24.60;48.60;;;;;;4932487;28;20053;-90
2022/06/15 13:13:43;;;;;;;6.20;1.50;;;24.60;49.00;;;;;;4954968;28;20023;-91
2022/06/15 13:16:40;;;;;;;4.95;1.60;;;24.60;49.30;;;;;;4930043;29;20118;-91
2022/06/15 13:19:46;;;;;;;6.97;1.27;;;24.60;49.90;;;;;;4951460;29;20043;-92
2022/06/15 13:22:21;;;;;;;5.18;1.40;;;24.70;49.60;;;;;;4970284;28;20118;-90
2022/06/15 13:24:53;;;;;;;6.22;1.30;;;24.80;48.90;;;;;;4950435;28;20023;-91
2022/06/15 13:27:54;;;;;;;6.93;1.67;;;24.80;49.80;;;;;;4954578;29;20035;-90
2022/06/15 13:30:27;;;;;;;7.78;2.22;;;24.90;48.90;;;;;;4954043;28;20023;-89
2022/06/15 13:32:57;;;;;;;6.38;1.60;;;24.90;49.70;;;;;;4938362;28;20031;-88
2022/06/15 13:35:42;;;;;;;8.52;1.30;;;25.00;48.90;;;;;;4957857;28;20103;-89
2022/06/15 13:38:22;;;;;;;11.15;1.80;;;25.00;47.70;;;;;;4925886;29;20027;-90
2022/06/15 13:40:53;;;;;;;7.20;1.33;;;25.00;48.50;;;;;;4956178;28;20023;-89
2022/06/15 13:43:23;;;;;;;10.65;1.77;;;25.00;47.70;;;;;;4928236;29;20028;-89
2022/06/15 13:45:57;;;;;;;7.90;1.73;;;25.10;46.80;;;;;;4969898;28;20050;-89
2022/06/15 13:48:43;;;;;;;4.38;1.35;;;25.10;47.10;;;;;;4950423;28;20042;-88
2022/06/15 13:51:16;;;;;;;5.50;1.45;;;25.00;47.70;;;;;;4935547;29;20059;-87
2022/06/15 13:54:07;;;;;;;4.35;1.15;;;25.10;47.80;;;;;;4935561;29;20151;-90
2022/06/15 13:56:50;;;;;;;6.80;1.67;;;25.30;48.00;;;;;;4944584;28;20111;-89
2022/06/15 13:59:43;;;;;;;3.95;2.35;;;25.50;47.10;;;;;;4952677;28;20031;-90
2022/06/15 14:03:00;;;;;;;6.53;1.30;;;25.40;45.40;;;;;;4926559;28;20035;-89
2022/06/15 14:06:05;;;;;;;3.30;1.25;;;25.30;44.60;;;;;;4939797;29;20491;-88
2022/06/15 14:08:55;;;;;;;3.17;1.58;;;25.20;45.90;;;;;;4961438;28;20034;-88
2022/06/15 14:11:40;;;;;;;2.78;1.38;;;25.20;46.10;;;;;;4944414;28;20034;-90
2022/06/15 14:14:19;;;;;;;4.45;1.30;;;25.10;45.60;;;;;;4941793;28;20065;-90
2022/06/15 14:17:30;;;;;;;8.23;1.60;;;25.10;46.00;;;;;;4934361;29;20035;-89
2022/06/15 14:20:26;;;;;;;2.60;1.17;;;25.10;46.30;;;;;;4967056;28;20037;-91
2022/06/15 14:22:57;;;;;;;7.25;1.58;;;25.10;46.20;;;;;;4970875;28;20059;-92